Terminal Aerodrome Forecast
Issued by NWS Charleston, SC

Home | Current Version | Previous Version | Text Only | Print | Product List | Glossary On
Versions: 1 2 3 4 5 6 7 8 9 10 11 12 13 14 15 16 17 18 19 20 21 22 23 24 25 26 27
000
FTUS42 KCHS 270520
TAFSAV
TAF
KSAV 270520Z 2706/2806 21007KT 6SM BR VCSH BKN006
     FM271300 23008KT P6SM VCSH SCT009 BKN015
     FM271500 26011G17KT 6SM -SHRA SCT010 BKN020
     FM272000 29015G22KT P6SM BKN035
     FM280100 30009KT P6SM SCT035=

USA.gov is the U.S. government's official web portal to all federal, state and local government web resources and services.